sensor_id;sensor_type;location;lat;lon;timestamp;pressure;altitude;pressure_sealevel;temperature;humidity
5283;BME280;15376;48.540;9.268;2023-05-15T00:01:13;97167.59;;;8.61;100.00
5283;BME280;15376;48.540;9.268;2023-05-15T00:03:39;97153.25;;;8.55;100.00
5283;BME280;15376;48.540;9.268;2023-05-15T00:06:05;97159.72;;;8.53;100.00
5283;BME280;15376;48.540;9.268;2023-05-15T00:08:31;97171.13;;;8.53;100.00
5283;BME280;15376;48.540;9.268;2023-05-15T00:10:56;97175.25;;;8.56;100.00
5283;BME280;15376;48.540;9.268;2023-05-15T00:13:21;97150.50;;;8.49;100.00
5283;BME280;15376;48.540;9.268;2023-05-15T00:15:47;97174.06;;;8.58;100.00
5283;BME280;15376;48.540;9.268;2023-05-15T00:18:12;97167.94;;;8.58;100.00
5283;BME280;15376;48.540;9.268;2023-05-15T00:20:37;97154.44;;;8.53;100.00
5283;BME280;15376;48.540;9.268;2023-05-15T00:23:03;97170.53;;;8.66;100.00
5283;BME280;15376;48.540;9.268;2023-05-15T00:25:28;97169.19;;;8.70;100.00
5283;BME280;15376;48.540;9.268;2023-05-15T00:27:53;97152.38;;;8.63;100.00
5283;BME280;15376;48.540;9.268;2023-05-15T00:30:19;97165.88;;;8.68;100.00
5283;BME280;15376;48.540;9.268;2023-05-15T00:32:44;97162.31;;;8.61;100.00
5283;BME280;15376;48.540;9.268;2023-05-15T00:35:11;97165.94;;;8.60;100.00
5283;BME280;15376;48.540;9.268;2023-05-15T00:37:36;97163.00;;;8.55;100.00
5283;BME280;15376;48.540;9.268;2023-05-15T00:40:02;97164.81;;;8.40;100.00
5283;BME280;15376;48.540;9.268;2023-05-15T00:42:27;97126.41;;;7.98;100.00
5283;BME280;15376;48.540;9.268;2023-05-15T00:44:54;97160.66;;;8.14;100.00
5283;BME280;15376;48.540;9.268;2023-05-15T00:47:21;97157.47;;;7.96;100.00
5283;BME280;15376;48.540;9.268;2023-05-15T00:49:48;97137.22;;;7.80;100.00
5283;BME280;15376;48.540;9.268;2023-05-15T00:52:15;97143.69;;;7.78;100.00
5283;BME280;15376;48.540;9.268;2023-05-15T00:54:40;97129.16;;;7.74;100.00
5283;BME280;15376;48.540;9.268;2023-05-15T00:57:07;97152.56;;;7.85;100.00
5283;BME280;15376;48.540;9.268;2023-05-15T00:59:33;97156.88;;;7.86;100.00
5283;BME280;15376;48.540;9.268;2023-05-15T01:01:59;97155.47;;;7.98;100.00
5283;BME280;15376;48.540;9.268;2023-05-15T01:04:24;97151.09;;;8.05;100.00
5283;BME280;15376;48.540;9.268;2023-05-15T01:06:50;97144.47;;;8.09;100.00
5283;BME280;15376;48.540;9.268;2023-05-15T01:09:18;97117.63;;;7.97;100.00
5283;BME280;15376;48.540;9.268;2023-05-15T01:11:45;97138.66;;;8.14;100.00
5283;BME280;15376;48.540;9.268;2023-05-15T01:14:11;97134.06;;;8.08;100.00
5283;BME280;15376;48.540;9.268;2023-05-15T01:16:36;97138.88;;;8.04;100.00
5283;BME280;15376;48.540;9.268;2023-05-15T01:19:03;97135.50;;;7.95;100.00
5283;BME280;15376;48.540;9.268;2023-05-15T01:29:54;97129.44;;;8.10;100.00
5283;BME280;15376;48.540;9.268;2023-05-15T01:32:33;97124.09;;;8.18;100.00
5283;BME280;15376;48.540;9.268;2023-05-15T01:35:09;97133.41;;;8.37;100.00
5283;BME280;15376;48.540;9.268;2023-05-15T01:37:43;97139.16;;;8.40;100.00
5283;BME280;15376;48.540;9.268;2023-05-15T01:40:11;97128.13;;;8.37;100.00
5283;BME280;15376;48.540;9.268;2023-05-15T01:42:43;97133.50;;;8.43;100.00
5283;BME280;15376;48.540;9.268;2023-05-15T01:45:12;97131.03;;;8.42;100.00
5283;BME280;15376;48.540;9.268;2023-05-15T01:47:43;97140.44;;;8.44;100.00
5283;BME280;15376;48.540;9.268;2023-05-15T01:50:13;97135.88;;;8.38;100.00
5283;BME280;15376;48.540;9.268;2023-05-15T01:52:41;97134.41;;;8.35;100.00
5283;BME280;15376;48.540;9.268;2023-05-15T01:55:08;97128.56;;;8.40;100.00
5283;BME280;15376;48.540;9.268;2023-05-15T01:57:34;97134.78;;;8.47;100.00
5283;BME280;15376;48.540;9.268;2023-05-15T02:00:02;97137.25;;;8.49;100.00
5283;BME280;15376;48.540;9.268;2023-05-15T02:02:28;97141.72;;;8.48;100.00
5283;BME280;15376;48.540;9.268;2023-05-15T02:04:55;97134.63;;;8.49;100.00
5283;BME280;15376;48.540;9.268;2023-05-15T02:07:22;97142.66;;;8.55;100.00
5283;BME280;15376;48.540;9.268;2023-05-15T02:09:52;97145.13;;;8.57;100.00
5283;BME280;15376;48.540;9.268;2023-05-15T02:12:18;97142.03;;;8.53;100.00
5283;BME280;15376;48.540;9.268;2023-05-15T02:14:47;97130.50;;;8.46;100.00
5283;BME280;15376;48.540;9.268;2023-05-15T02:17:13;97142.50;;;8.57;100.00
5283;BME280;15376;48.540;9.268;2023-05-15T02:19:38;97139.84;;;8.57;100.00
5283;BME280;15376;48.540;9.268;2023-05-15T02:22:04;97145.59;;;8.60;100.00
5283;BME280;15376;48.540;9.268;2023-05-15T02:24:29;97151.38;;;8.64;100.00
5283;BME280;15376;48.540;9.268;2023-05-15T02:27:10;97130.91;;;8.58;100.00
5283;BME280;15376;48.540;9.268;2023-05-15T02:35:24;97141.53;;;8.87;100.00
5283;BME280;15376;48.540;9.268;2023-05-15T02:37:52;97150.31;;;8.88;100.00
5283;BME280;15376;48.540;9.268;2023-05-15T02:40:19;97141.53;;;8.87;100.00
5283;BME280;15376;48.540;9.268;2023-05-15T02:42:48;97143.81;;;8.90;100.00
5283;BME280;15376;48.540;9.268;2023-05-15T02:45:14;97137.88;;;8.88;100.00
5283;BME280;15376;48.540;9.268;2023-05-15T02:47:41;97142.00;;;8.91;100.00
5283;BME280;15376;48.540;9.268;2023-05-15T02:50:07;97133.88;;;8.92;100.00
5283;BME280;15376;48.540;9.268;2023-05-15T02:52:33;97133.88;;;8.92;100.00
5283;BME280;15376;48.540;9.268;2023-05-15T02:54:59;97127.28;;;8.88;100.00
5283;BME280;15376;48.540;9.268;2023-05-15T02:57:25;97139.81;;;8.94;100.00
5283;BME280;15376;48.540;9.268;2023-05-15T02:59:54;97138.81;;;8.95;100.00
5283;BME280;15376;48.540;9.268;2023-05-15T03:02:20;97140.28;;;8.98;100.00
5283;BME280;15376;48.540;9.268;2023-05-15T03:04:45;97135.16;;;8.96;100.00
5283;BME280;15376;48.540;9.268;2023-05-15T03:07:10;97125.28;;;8.90;100.00
5283;BME280;15376;48.540;9.268;2023-05-15T03:09:36;97121.28;;;8.94;100.00
5283;BME280;15376;48.540;9.268;2023-05-15T03:12:01;97133.50;;;8.95;100.00
5283;BME280;15376;48.540;9.268;2023-05-15T03:14:26;97127.84;;;8.98;100.00
5283;BME280;15376;48.540;9.268;2023-05-15T03:16:52;97109.13;;;8.85;100.00
5283;BME280;15376;48.540;9.268;2023-05-15T03:19:17;97128.94;;;8.89;100.00
5283;BME280;15376;48.540;9.268;2023-05-15T03:21:42;97142.47;;;8.94;100.00
5283;BME280;15376;48.540;9.268;2023-05-15T03:24:08;97139.16;;;8.92;100.00
5283;BME280;15376;48.540;9.268;2023-05-15T03:26:33;97131.84;;;8.80;100.00
5283;BME280;15376;48.540;9.268;2023-05-15T03:29:00;97141.53;;;8.87;100.00
5283;BME280;15376;48.540;9.268;2023-05-15T03:31:25;97126.53;;;8.80;100.00
5283;BME280;15376;48.540;9.268;2023-05-15T03:33:50;97143.19;;;8.88;100.00
5283;BME280;15376;48.540;9.268;2023-05-15T03:36:16;97138.44;;;8.84;100.00
5283;BME280;15376;48.540;9.268;2023-05-15T03:38:41;97121.47;;;8.78;100.00
5283;BME280;15376;48.540;9.268;2023-05-15T03:41:09;97136.25;;;8.87;100.00
5283;BME280;15376;48.540;9.268;2023-05-15T03:43:34;97140.53;;;8.88;100.00
5283;BME280;15376;48.540;9.268;2023-05-15T03:46:00;97133.94;;;8.84;100.00
5283;BME280;15376;48.540;9.268;2023-05-15T03:48:25;97148.84;;;8.85;100.00
5283;BME280;15376;48.540;9.268;2023-05-15T03:50:50;97133.13;;;8.84;100.00
5283;BME280;15376;48.540;9.268;2023-05-15T03:53:16;97146.13;;;8.93;100.00
5283;BME280;15376;48.540;9.268;2023-05-15T03:55:42;97145.28;;;8.93;100.00
5283;BME280;15376;48.540;9.268;2023-05-15T03:58:07;97137.53;;;8.91;100.00
5283;BME280;15376;48.540;9.268;2023-05-15T04:00:33;97143.47;;;8.93;100.00
5283;BME280;15376;48.540;9.268;2023-05-15T04:02:58;97144.13;;;8.95;100.00
5283;BME280;15376;48.540;9.268;2023-05-15T04:05:24;97128.59;;;8.92;100.00
5283;BME280;15376;48.540;9.268;2023-05-15T04:07:49;97139.47;;;8.97;100.00
5283;BME280;15376;48.540;9.268;2023-05-15T04:10:14;97127.22;;;8.96;100.00
5283;BME280;15376;48.540;9.268;2023-05-15T04:12:40;97127.41;;;8.95;100.00
5283;BME280;15376;48.540;9.268;2023-05-15T04:15:19;97127.97;;;9.05;100.00
5283;BME280;15376;48.540;9.268;2023-05-15T04:17:46;97131.34;;;9.14;100.00
5283;BME280;15376;48.540;9.268;2023-05-15T04:20:13;97128.50;;;9.15;100.00
5283;BME280;15376;48.540;9.268;2023-05-15T04:22:40;97129.16;;;9.17;100.00
5283;BME280;15376;48.540;9.268;2023-05-15T04:25:06;97134.34;;;9.25;100.00
5283;BME280;15376;48.540;9.268;2023-05-15T04:27:32;97124.56;;;9.26;100.00
5283;BME280;15376;48.540;9.268;2023-05-15T04:29:57;97126.13;;;9.35;100.00
5283;BME280;15376;48.540;9.268;2023-05-15T04:32:22;97131.78;;;9.47;100.00
5283;BME280;15376;48.540;9.268;2023-05-15T04:34:48;97137.16;;;9.53;100.00
5283;BME280;15376;48.540;9.268;2023-05-15T04:37:14;97139.88;;;9.60;100.00
5283;BME280;15376;48.540;9.268;2023-05-15T04:39:39;97118.88;;;9.58;100.00
5283;BME280;15376;48.540;9.268;2023-05-15T04:42:04;97126.59;;;9.75;100.00
5283;BME280;15376;48.540;9.268;2023-05-15T04:44:30;97127.88;;;9.79;100.00
5283;BME280;15376;48.540;9.268;2023-05-15T04:46:56;97125.75;;;9.89;100.00
5283;BME280;15376;48.540;9.268;2023-05-15T04:49:21;97133.16;;;9.93;100.00
5283;BME280;15376;48.540;9.268;2023-05-15T04:51:46;97127.41;;;9.90;100.00
5283;BME280;15376;48.540;9.268;2023-05-15T04:54:12;97136.88;;;9.99;100.00
5283;BME280;15376;48.540;9.268;2023-05-15T04:56:37;97128.72;;;10.00;100.00
5283;BME280;15376;48.540;9.268;2023-05-15T04:59:03;97139.22;;;10.09;100.00
5283;BME280;15376;48.540;9.268;2023-05-15T05:01:28;97138.47;;;10.15;100.00
5283;BME280;15376;48.540;9.268;2023-05-15T05:03:53;97118.63;;;10.11;100.00
5283;BME280;15376;48.540;9.268;2023-05-15T05:06:19;97139.91;;;10.17;100.00
5283;BME280;15376;48.540;9.268;2023-05-15T05:08:44;97144.94;;;10.27;100.00
5283;BME280;15376;48.540;9.268;2023-05-15T05:11:09;97140.72;;;10.32;100.00
5283;BME280;15376;48.540;9.268;2023-05-15T05:13:35;97145.28;;;10.39;100.00
5283;BME280;15376;48.540;9.268;2023-05-15T05:16:00;97147.53;;;10.42;100.00
5283;BME280;15376;48.540;9.268;2023-05-15T05:18:26;97130.78;;;10.41;100.00
5283;BME280;15376;48.540;9.268;2023-05-15T05:21:00;97142.28;;;10.48;100.00
5283;BME280;15376;48.540;9.268;2023-05-15T05:23:27;97135.84;;;10.57;100.00
5283;BME280;15376;48.540;9.268;2023-05-15T05:25:52;97140.56;;;10.62;100.00
5283;BME280;15376;48.540;9.268;2023-05-15T05:28:17;97146.22;;;10.80;100.00
5283;BME280;15376;48.540;9.268;2023-05-15T05:30:46;97147.59;;;10.97;100.00
5283;BME280;15376;48.540;9.268;2023-05-15T05:33:12;97146.00;;;11.03;100.00
5283;BME280;15376;48.540;9.268;2023-05-15T05:35:37;97142.81;;;11.21;100.00
5283;BME280;15376;48.540;9.268;2023-05-15T05:38:03;97145.94;;;11.31;100.00
5283;BME280;15376;48.540;9.268;2023-05-15T05:40:29;97146.44;;;11.41;100.00
5283;BME280;15376;48.540;9.268;2023-05-15T05:42:58;97134.00;;;11.48;100.00
5283;BME280;15376;48.540;9.268;2023-05-15T05:45:24;97130.56;;;11.54;100.00
5283;BME280;15376;48.540;9.268;2023-05-15T05:47:49;97133.25;;;11.67;100.00
5283;BME280;15376;48.540;9.268;2023-05-15T05:50:14;97126.13;;;11.75;100.00
5283;BME280;15376;48.540;9.268;2023-05-15T05:52:39;97128.47;;;11.91;100.00
5283;BME280;15376;48.540;9.268;2023-05-15T05:55:05;97116.59;;;12.00;100.00
5283;BME280;15376;48.540;9.268;2023-05-15T05:57:31;97130.78;;;12.20;100.00
5283;BME280;15376;48.540;9.268;2023-05-15T05:59:56;97131.22;;;12.30;100.00
5283;BME280;15376;48.540;9.268;2023-05-15T06:02:21;97129.97;;;12.40;100.00
5283;BME280;15376;48.540;9.268;2023-05-15T06:04:47;97128.97;;;12.34;100.00
5283;BME280;15376;48.540;9.268;2023-05-15T06:07:12;97127.75;;;12.37;100.00
5283;BME280;15376;48.540;9.268;2023-05-15T06:09:38;97118.72;;;12.24;100.00
5283;BME280;15376;48.540;9.268;2023-05-15T06:12:03;97132.03;;;12.44;100.00
5283;BME280;15376;48.540;9.268;2023-05-15T06:14:29;97139.03;;;12.39;100.00
5283;BME280;15376;48.540;9.268;2023-05-15T06:16:55;97139.81;;;12.46;100.00
5283;BME280;15376;48.540;9.268;2023-05-15T06:19:20;97138.81;;;12.47;100.00
5283;BME280;15376;48.540;9.268;2023-05-15T06:21:46;97138.41;;;12.56;100.00
5283;BME280;15376;48.540;9.268;2023-05-15T06:24:11;97139.25;;;12.70;100.00
5283;BME280;15376;48.540;9.268;2023-05-15T06:26:37;97133.09;;;12.76;100.00
5283;BME280;15376;48.540;9.268;2023-05-15T06:29:02;97138.81;;;12.86;100.00
5283;BME280;15376;48.540;9.268;2023-05-15T06:31:27;97131.84;;;12.92;100.00
5283;BME280;15376;48.540;9.268;2023-05-15T06:33:53;97135.94;;;13.01;100.00
5283;BME280;15376;48.540;9.268;2023-05-15T06:36:18;97135.72;;;13.09;100.00
5283;BME280;15376;48.540;9.268;2023-05-15T06:38:43;97132.03;;;13.03;100.00
5283;BME280;15376;48.540;9.268;2023-05-15T06:41:09;97126.09;;;13.01;100.00
5283;BME280;15376;48.540;9.268;2023-05-15T06:43:34;97126.31;;;13.07;100.00
5283;BME280;15376;48.540;9.268;2023-05-15T06:46:00;97134.50;;;13.12;100.00
5283;BME280;15376;48.540;9.268;2023-05-15T06:48:25;97133.03;;;13.29;100.00
5283;BME280;15376;48.540;9.268;2023-05-15T06:50:50;97132.00;;;13.43;100.00
5283;BME280;15376;48.540;9.268;2023-05-15T06:53:16;97131.78;;;13.51;100.00
5283;BME280;15376;48.540;9.268;2023-05-15T06:55:42;97128.81;;;13.66;100.00
5283;BME280;15376;48.540;9.268;2023-05-15T06:58:08;97128.00;;;13.65;100.00
5283;BME280;15376;48.540;9.268;2023-05-15T07:00:33;97114.00;;;13.83;100.00
5283;BME280;15376;48.540;9.268;2023-05-15T07:02:58;97131.66;;;13.78;100.00
5283;BME280;15376;48.540;9.268;2023-05-15T07:05:24;97126.09;;;13.86;100.00
5283;BME280;15376;48.540;9.268;2023-05-15T07:07:49;97121.97;;;13.90;100.00
5283;BME280;15376;48.540;9.268;2023-05-15T07:10:15;97135.00;;;14.11;100.00
5283;BME280;15376;48.540;9.268;2023-05-15T07:12:40;97120.44;;;14.07;100.00
5283;BME280;15376;48.540;9.268;2023-05-15T07:15:06;97132.00;;;14.32;100.00
5283;BME280;15376;48.540;9.268;2023-05-15T07:17:32;97129.22;;;14.14;100.00
5283;BME280;15376;48.540;9.268;2023-05-15T07:19:57;97124.25;;;14.24;100.00
5283;BME280;15376;48.540;9.268;2023-05-15T07:22:22;97133.84;;;14.32;100.00
5283;BME280;15376;48.540;9.268;2023-05-15T07:24:48;97124.59;;;14.66;100.00
5283;BME280;15376;48.540;9.268;2023-05-15T07:27:13;97121.19;;;15.02;100.00
5283;BME280;15376;48.540;9.268;2023-05-15T07:29:38;97138.34;;;15.19;100.00
5283;BME280;15376;48.540;9.268;2023-05-15T07:32:04;97135.78;;;15.06;100.00
5283;BME280;15376;48.540;9.268;2023-05-15T07:34:29;97132.06;;;14.82;100.00
5283;BME280;15376;48.540;9.268;2023-05-15T07:36:55;97133.16;;;14.99;100.00
5283;BME280;15376;48.540;9.268;2023-05-15T07:39:20;97121.53;;;14.87;100.00
5283;BME280;15376;48.540;9.268;2023-05-15T07:41:45;97130.38;;;14.63;100.00
5283;BME280;15376;48.540;9.268;2023-05-15T07:44:11;97133.66;;;14.65;100.00
5283;BME280;15376;48.540;9.268;2023-05-15T07:46:36;97133.22;;;14.93;100.00
5283;BME280;15376;48.540;9.268;2023-05-15T07:49:03;97135.50;;;14.89;100.00
5283;BME280;15376;48.540;9.268;2023-05-15T07:51:28;97137.97;;;14.91;100.00
5283;BME280;15376;48.540;9.268;2023-05-15T07:53:54;97135.16;;;15.04;100.00
5283;BME280;15376;48.540;9.268;2023-05-15T07:56:19;97132.28;;;15.06;100.00
5283;BME280;15376;48.540;9.268;2023-05-15T07:58:45;97132.56;;;14.97;100.00
5283;BME280;15376;48.540;9.268;2023-05-15T08:01:11;97112.69;;;14.87;100.00
5283;BME280;15376;48.540;9.268;2023-05-15T08:03:36;97130.75;;;15.16;100.00
5283;BME280;15376;48.540;9.268;2023-05-15T08:06:01;97101.44;;;15.03;100.00
5283;BME280;15376;48.540;9.268;2023-05-15T08:08:27;97119.09;;;15.47;100.00
5283;BME280;15376;48.540;9.268;2023-05-15T08:10:52;97114.41;;;15.61;100.00
5283;BME280;15376;48.540;9.268;2023-05-15T08:13:17;97109.78;;;15.56;100.00
5283;BME280;15376;48.540;9.268;2023-05-15T08:15:43;97122.06;;;15.94;100.00
5283;BME280;15376;48.540;9.268;2023-05-15T08:18:08;97117.44;;;16.01;100.00
5283;BME280;15376;48.540;9.268;2023-05-15T08:20:34;97115.16;;;16.16;100.00
5283;BME280;15376;48.540;9.268;2023-05-15T08:23:00;97120.41;;;16.53;100.00
5283;BME280;15376;48.540;9.268;2023-05-15T08:25:25;97115.41;;;16.56;100.00
5283;BME280;15376;48.540;9.268;2023-05-15T08:27:50;97112.78;;;16.68;100.00
5283;BME280;15376;48.540;9.268;2023-05-15T08:30:16;97100.69;;;16.77;99.40
5283;BME280;15376;48.540;9.268;2023-05-15T08:32:42;97120.03;;;17.03;98.30
5283;BME280;15376;48.540;9.268;2023-05-15T08:35:09;97115.72;;;17.02;95.97
5283;BME280;15376;48.540;9.268;2023-05-15T08:37:35;97119.34;;;16.95;95.42
5283;BME280;15376;48.540;9.268;2023-05-15T08:40:01;97108.63;;;17.19;97.18
5283;BME280;15376;48.540;9.268;2023-05-15T08:42:47;97108.94;;;17.34;95.62
5283;BME280;15376;48.540;9.268;2023-05-15T08:45:14;97105.75;;;17.60;97.54
5283;BME280;15376;48.540;9.268;2023-05-15T08:47:41;97094.47;;;17.35;98.10
5283;BME280;15376;48.540;9.268;2023-05-15T08:50:11;97097.69;;;17.72;96.07
5283;BME280;15376;48.540;9.268;2023-05-15T08:52:40;97100.06;;;17.57;96.00
5283;BME280;15376;48.540;9.268;2023-05-15T08:55:06;97101.00;;;17.51;94.78
5283;BME280;15376;48.540;9.268;2023-05-15T08:57:32;97094.25;;;17.37;96.63
5283;BME280;15376;48.540;9.268;2023-05-15T08:59:59;97094.47;;;17.23;96.60
5283;BME280;15376;48.540;9.268;2023-05-15T09:02:24;97067.06;;;17.33;97.64
5283;BME280;15376;48.540;9.268;2023-05-15T09:04:50;97087.34;;;17.52;97.36
5283;BME280;15376;48.540;9.268;2023-05-15T09:07:16;97077.94;;;17.78;96.73
5283;BME280;15376;48.540;9.268;2023-05-15T09:09:43;97080.09;;;18.21;90.94
5283;BME280;15376;48.540;9.268;2023-05-15T09:12:15;97066.84;;;18.31;86.67
5283;BME280;15376;48.540;9.268;2023-05-15T09:14:41;97078.91;;;18.29;89.74
5283;BME280;15376;48.540;9.268;2023-05-15T09:17:10;97063.72;;;18.68;90.10
5283;BME280;15376;48.540;9.268;2023-05-15T09:19:38;97072.88;;;18.67;87.09
5283;BME280;15376;48.540;9.268;2023-05-15T09:22:34;97066.00;;;18.93;89.15
5283;BME280;15376;48.540;9.268;2023-05-15T09:25:00;97074.91;;;19.32;86.08
5283;BME280;15376;48.540;9.268;2023-05-15T09:27:27;97069.88;;;19.19;87.32
5283;BME280;15376;48.540;9.268;2023-05-15T09:29:52;97062.41;;;18.87;84.21
5283;BME280;15376;48.540;9.268;2023-05-15T09:32:20;97058.09;;;18.08;87.29
5283;BME280;15376;48.540;9.268;2023-05-15T09:34:46;97065.81;;;17.76;88.73
5283;BME280;15376;48.540;9.268;2023-05-15T09:37:27;97052.63;;;16.99;95.54
5283;BME280;15376;48.540;9.268;2023-05-15T09:39:53;97047.91;;;16.36;100.00
5283;BME280;15376;48.540;9.268;2023-05-15T09:42:18;97061.00;;;16.14;100.00
5283;BME280;15376;48.540;9.268;2023-05-15T09:44:44;97055.28;;;15.81;100.00
5283;BME280;15376;48.540;9.268;2023-05-15T09:47:12;97062.75;;;15.42;100.00
5283;BME280;15376;48.540;9.268;2023-05-15T09:49:38;97044.31;;;14.97;100.00
5283;BME280;15376;48.540;9.268;2023-05-15T09:52:08;97056.28;;;14.95;100.00
5283;BME280;15376;48.540;9.268;2023-05-15T09:54:34;97055.00;;;14.97;100.00
5283;BME280;15376;48.540;9.268;2023-05-15T09:57:11;97054.34;;;15.02;100.00
5283;BME280;15376;48.540;9.268;2023-05-15T09:59:47;97053.19;;;15.16;100.00
5283;BME280;15376;48.540;9.268;2023-05-15T10:02:21;97061.09;;;15.23;100.00
5283;BME280;15376;48.540;9.268;2023-05-15T10:04:53;97049.72;;;15.82;100.00
5283;BME280;15376;48.540;9.268;2023-05-15T10:07:37;97049.59;;;17.19;100.00
5283;BME280;15376;48.540;9.268;2023-05-15T10:10:03;97035.41;;;18.82;100.00
5283;BME280;15376;48.540;9.268;2023-05-15T10:12:33;97043.34;;;20.79;100.00
5283;BME280;15376;48.540;9.268;2023-05-15T10:15:01;97050.22;;;22.06;95.64
5283;BME280;15376;48.540;9.268;2023-05-15T10:17:27;97045.69;;;22.27;83.76
5283;BME280;15376;48.540;9.268;2023-05-15T10:19:57;97047.03;;;21.47;84.75
5283;BME280;15376;48.540;9.268;2023-05-15T10:22:28;97048.47;;;20.80;80.13
5283;BME280;15376;48.540;9.268;2023-05-15T10:27:45;97031.09;;;18.48;90.27
5283;BME280;15376;48.540;9.268;2023-05-15T10:30:11;97053.53;;;17.80;96.91
5283;BME280;15376;48.540;9.268;2023-05-15T10:32:43;97034.50;;;16.48;100.00
5283;BME280;15376;48.540;9.268;2023-05-15T10:35:10;97054.78;;;14.56;100.00
5283;BME280;15376;48.540;9.268;2023-05-15T10:37:38;97045.72;;;13.18;100.00
5283;BME280;15376;48.540;9.268;2023-05-15T10:40:06;97061.38;;;12.68;100.00
5283;BME280;15376;48.540;9.268;2023-05-15T10:42:33;97060.75;;;12.20;100.00
5283;BME280;15376;48.540;9.268;2023-05-15T10:45:00;97063.41;;;12.20;100.00
5283;BME280;15376;48.540;9.268;2023-05-15T10:47:28;97064.63;;;12.17;100.00
5283;BME280;15376;48.540;9.268;2023-05-15T10:49:54;97066.88;;;12.07;100.00
5283;BME280;15376;48.540;9.268;2023-05-15T10:52:19;97063.00;;;12.16;100.00
5283;BME280;15376;48.540;9.268;2023-05-15T10:54:45;97063.81;;;12.43;100.00
5283;BME280;15376;48.540;9.268;2023-05-15T10:57:10;97050.09;;;12.66;100.00
5283;BME280;15376;48.540;9.268;2023-05-15T10:59:36;97059.69;;;12.93;100.00
5283;BME280;15376;48.540;9.268;2023-05-15T11:02:26;97052.44;;;13.27;100.00
5283;BME280;15376;48.540;9.268;2023-05-15T11:05:00;97042.22;;;13.62;100.00
5283;BME280;15376;48.540;9.268;2023-05-15T11:07:27;97041.28;;;13.88;100.00
5283;BME280;15376;48.540;9.268;2023-05-15T11:09:53;97037.81;;;14.44;100.00
5283;BME280;15376;48.540;9.268;2023-05-15T11:12:19;97022.75;;;14.92;100.00
5283;BME280;15376;48.540;9.268;2023-05-15T11:17:16;97021.03;;;16.66;100.00
5283;BME280;15376;48.540;9.268;2023-05-15T11:25:08;97001.50;;;17.97;100.00
5283;BME280;15376;48.540;9.268;2023-05-15T11:30:15;97004.81;;;17.88;100.00
5283;BME280;15376;48.540;9.268;2023-05-15T11:40:57;96999.38;;;18.50;100.00
5283;BME280;15376;48.540;9.268;2023-05-15T11:43:26;96994.03;;;19.27;97.45
5283;BME280;15376;48.540;9.268;2023-05-15T11:45:57;96998.56;;;21.30;92.03
5283;BME280;15376;48.540;9.268;2023-05-15T11:48:24;97008.06;;;22.20;74.58
5283;BME280;15376;48.540;9.268;2023-05-15T11:50:50;97008.16;;;21.63;79.42
5283;BME280;15376;48.540;9.268;2023-05-15T11:53:18;97011.56;;;20.54;81.18
5283;BME280;15376;48.540;9.268;2023-05-15T11:55:44;96996.88;;;20.40;82.24
5283;BME280;15376;48.540;9.268;2023-05-15T11:58:15;97001.44;;;20.07;75.52
5283;BME280;15376;48.540;9.268;2023-05-15T12:00:42;96992.91;;;19.88;79.31
5283;BME280;15376;48.540;9.268;2023-05-15T12:03:34;96997.22;;;20.48;83.19
5283;BME280;15376;48.540;9.268;2023-05-15T12:06:02;96974.78;;;20.80;82.56
5283;BME280;15376;48.540;9.268;2023-05-15T12:08:32;96979.81;;;23.23;77.35
5283;BME280;15376;48.540;9.268;2023-05-15T12:10:58;96991.81;;;25.60;64.40
5283;BME280;15376;48.540;9.268;2023-05-15T12:13:24;96969.44;;;27.36;59.28
5283;BME280;15376;48.540;9.268;2023-05-15T12:15:49;96983.94;;;28.36;56.63
5283;BME280;15376;48.540;9.268;2023-05-15T12:18:15;96990.69;;;28.83;51.13
5283;BME280;15376;48.540;9.268;2023-05-15T12:20:40;96979.47;;;29.64;47.99
5283;BME280;15376;48.540;9.268;2023-05-15T12:23:15;96979.44;;;27.68;51.39
5283;BME280;15376;48.540;9.268;2023-05-15T12:25:42;96987.44;;;26.90;50.96
5283;BME280;15376;48.540;9.268;2023-05-15T12:28:08;96993.34;;;25.00;53.89
5283;BME280;15376;48.540;9.268;2023-05-15T12:30:34;96973.66;;;25.13;56.44
5283;BME280;15376;48.540;9.268;2023-05-15T12:33:04;96993.94;;;25.68;51.90
5283;BME280;15376;48.540;9.268;2023-05-15T12:35:41;96973.38;;;25.81;54.10
5283;BME280;15376;48.540;9.268;2023-05-15T12:38:06;96981.91;;;25.26;53.21
5283;BME280;15376;48.540;9.268;2023-05-15T12:40:33;96991.75;;;23.91;54.15
5283;BME280;15376;48.540;9.268;2023-05-15T12:43:06;96981.53;;;22.02;62.39
5283;BME280;15376;48.540;9.268;2023-05-15T12:45:32;96989.63;;;20.77;68.70
5283;BME280;15376;48.540;9.268;2023-05-15T12:47:59;96979.03;;;19.31;76.06
5283;BME280;15376;48.540;9.268;2023-05-15T12:50:25;96971.44;;;18.00;84.69
5283;BME280;15376;48.540;9.268;2023-05-15T12:52:56;96974.00;;;16.98;88.90
5283;BME280;15376;48.540;9.268;2023-05-15T12:55:29;96968.91;;;16.39;97.65
5283;BME280;15376;48.540;9.268;2023-05-15T12:57:58;96975.53;;;16.24;97.31
5283;BME280;15376;48.540;9.268;2023-05-15T13:00:24;96975.63;;;16.18;99.49
5283;BME280;15376;48.540;9.268;2023-05-15T13:02:54;96964.47;;;16.32;100.00
5283;BME280;15376;48.540;9.268;2023-05-15T13:05:22;96967.59;;;16.88;98.53
5283;BME280;15376;48.540;9.268;2023-05-15T13:07:47;96948.63;;;18.53;94.12
5283;BME280;15376;48.540;9.268;2023-05-15T13:10:13;96963.38;;;20.30;85.18
5283;BME280;15376;48.540;9.268;2023-05-15T13:12:42;96965.75;;;21.74;78.25
5283;BME280;15376;48.540;9.268;2023-05-15T13:15:22;96963.06;;;23.75;70.22
5283;BME280;15376;48.540;9.268;2023-05-15T13:17:54;96970.31;;;24.63;63.71
5283;BME280;15376;48.540;9.268;2023-05-15T13:20:22;96957.41;;;24.50;60.81
5283;BME280;15376;48.540;9.268;2023-05-15T13:22:48;96975.03;;;24.52;60.14
5283;BME280;15376;48.540;9.268;2023-05-15T13:25:16;96966.34;;;23.08;62.58
5283;BME280;15376;48.540;9.268;2023-05-15T13:27:42;96961.69;;;21.71;69.25
5283;BME280;15376;48.540;9.268;2023-05-15T13:30:08;96973.53;;;20.97;70.26
5283;BME280;15376;48.540;9.268;2023-05-15T13:32:33;96953.81;;;20.18;72.77
5283;BME280;15376;48.540;9.268;2023-05-15T13:34:59;96962.94;;;19.85;75.24
5283;BME280;15376;48.540;9.268;2023-05-15T13:37:24;96963.81;;;19.20;79.33
5283;BME280;15376;48.540;9.268;2023-05-15T13:39:49;96961.03;;;18.71;78.15
5283;BME280;15376;48.540;9.268;2023-05-15T13:42:15;96945.03;;;18.48;81.90